»·PEaware :: AAL572 KSEA-KSFO

AAL572 :: KSEA-KSFO

FLIGHT INFORMATION

Flight Status: Arrived
Operator:
American Airlines
More flights by this operator :: More flights under this callsign
Pilot: Anonymous 8799 (8799)
Aircraft: BOEING 737-800
(B738)
More flights by this aircraft type
Origin: KSEA Seattle-Tacoma Intl
United States
Destination: KSFO San Francisco Intl
United States
More flights between these airports :: More routes between these airports
Route: +HAROB6 ERAVE Q1 ETCHY MLBEC BDEGA2
File this flight plan on PilotEdge
Remarks:
Altitude:
(Current/Filed)
35,000ft
Speed:
(Current/Filed)
450kts
Departed: 08-Jan-18 06:33 PM
Arrived: 08-Jan-18 08:36 PM
Distance/Time
Traveled:
590nm/2:03
Distance/Time
To Go:
Arrived

Flight Plot

Page will automatically refresh every two minutes.

Flight plan parsing failed; only flown route is shown


Map Options




Map Legend


Flown Route
Filed Route
Departure Airport
Arrival Airport
Navaid (VOR, NDB)
Fix

Horizontal Profiles

Position Reports

Time Latitude Longitude Heading Altitude Ground
Speed
08-Jan-18 17:59 47.446840 -122.304332 158 356ft 0kts
08-Jan-18 18:00 47.446840 -122.304332 158 356ft 0kts
08-Jan-18 18:01 47.446840 -122.304332 158 356ft 0kts
08-Jan-18 18:02 47.446840 -122.304332 158 356ft 0kts
08-Jan-18 18:03 47.446840 -122.304332 158 356ft 0kts
08-Jan-18 18:04 47.446840 -122.304332 158 356ft 0kts
08-Jan-18 18:05 47.446840 -122.304332 158 356ft 0kts
08-Jan-18 18:06 47.446840 -122.304332 158 356ft 0kts
08-Jan-18 18:07 47.446840 -122.304332 158 356ft 0kts
08-Jan-18 18:08 47.446840 -122.304332 158 356ft 0kts
08-Jan-18 18:09 47.446840 -122.304332 158 356ft 0kts
08-Jan-18 18:10 47.446840 -122.304332 158 356ft 0kts
08-Jan-18 18:11 47.446840 -122.304332 158 356ft 0kts
08-Jan-18 18:12 47.446840 -122.304332 158 356ft 0kts
08-Jan-18 18:13 47.446840 -122.304332 158 356ft 0kts
08-Jan-18 18:14 47.446840 -122.304332 158 356ft 0kts
08-Jan-18 18:15 47.446840 -122.304332 158 356ft 0kts
08-Jan-18 18:16 47.446840 -122.304332 158 356ft 0kts
08-Jan-18 18:17 47.446840 -122.304332 158 356ft 0kts
08-Jan-18 18:18 47.446840 -122.304332 158 356ft 0kts
08-Jan-18 18:19 47.446840 -122.304332 158 356ft 0kts
08-Jan-18 18:20 47.446840 -122.304332 158 356ft 0kts
08-Jan-18 18:21 47.446840 -122.304332 158 356ft 0kts
08-Jan-18 18:22 47.447273 -122.304370 206 356ft 2kts
08-Jan-18 18:23 47.447523 -122.303642 282 356ft 2kts
08-Jan-18 18:24 47.447441 -122.303372 301 356ft 0kts
08-Jan-18 18:25 47.447441 -122.303372 301 356ft 0kts
08-Jan-18 18:26 47.447441 -122.303372 301 356ft 0kts
08-Jan-18 18:27 47.447441 -122.303372 301 356ft 0kts
08-Jan-18 18:28 47.447441 -122.303372 301 356ft 0kts
08-Jan-18 18:29 47.447441 -122.303372 301 356ft 0kts
08-Jan-18 18:30 47.447441 -122.303372 301 356ft 0kts
08-Jan-18 18:31 47.447441 -122.303372 301 356ft 0kts
08-Jan-18 18:32 47.447441 -122.303372 301 356ft 0kts
08-Jan-18 18:33 47.447441 -122.303372 301 356ft 0kts
08-Jan-18 18:34 47.447441 -122.303372 301 356ft 0kts
08-Jan-18 18:35 47.447988 -122.305464 296 356ft 14kts
08-Jan-18 18:36 47.452458 -122.306262 0 356ft 17kts
08-Jan-18 18:37 47.457146 -122.306211 1 356ft 16kts
08-Jan-18 18:38 47.461980 -122.306201 5 356ft 9kts
08-Jan-18 18:39 47.457361 -122.307790 180 356ft 111kts
08-Jan-18 18:40 47.408288 -122.309107 180 2627ft 231kts
08-Jan-18 18:41 47.342949 -122.315218 193 4205ft 289kts
08-Jan-18 18:42 47.285283 -122.377482 258 8959ft 259kts
08-Jan-18 18:43 47.302049 -122.489397 275 11759ft 307kts
08-Jan-18 18:44 47.310831 -122.616235 268 14984ft 322kts
08-Jan-18 18:45 47.314998 -122.742261 266 17393ft 326kts
08-Jan-18 18:46 47.290177 -122.866655 244 20536ft 326kts
08-Jan-18 18:47 47.256278 -122.992594 244 22768ft 338kts
08-Jan-18 18:48 47.195785 -123.092518 216 25552ft 338kts
08-Jan-18 18:49 47.121101 -123.173252 216 28747ft 329kts
08-Jan-18 18:50 47.049476 -123.250649 216 31817ft 315kts
08-Jan-18 18:51 46.980335 -123.325410 216 34171ft 310kts
08-Jan-18 18:52 46.909134 -123.395725 200 34753ft 317kts
08-Jan-18 18:53 46.823309 -123.398581 185 34772ft 329kts
08-Jan-18 18:54 46.732921 -123.395504 185 34785ft 329kts
08-Jan-18 18:55 46.639812 -123.392411 184 34802ft 354kts
08-Jan-18 18:56 46.535592 -123.388862 184 34794ft 395kts
08-Jan-18 18:57 46.426098 -123.385061 184 34784ft 394kts
08-Jan-18 18:58 46.316688 -123.381342 184 34789ft 394kts
08-Jan-18 18:59 46.207333 -123.377631 184 34798ft 394kts
08-Jan-18 19:00 46.098153 -123.373921 184 34797ft 394kts
08-Jan-18 19:01 45.988919 -123.370213 184 34796ft 394kts
08-Jan-18 19:02 45.882357 -123.366591 184 34805ft 394kts
08-Jan-18 19:03 45.776297 -123.362989 184 34794ft 394kts
08-Jan-18 19:04 45.666799 -123.359267 184 34789ft 395kts
08-Jan-18 19:05 45.557583 -123.355554 184 34787ft 394kts
08-Jan-18 19:06 45.448012 -123.351828 184 34786ft 394kts
08-Jan-18 19:07 45.338936 -123.348118 184 34784ft 394kts
08-Jan-18 19:08 45.229512 -123.344396 183 34783ft 394kts
08-Jan-18 19:09 45.120080 -123.340673 183 34781ft 394kts
08-Jan-18 19:10 45.010800 -123.336960 183 34779ft 396kts
08-Jan-18 19:11 44.900765 -123.333209 183 34777ft 396kts
08-Jan-18 19:12 44.794895 -123.329601 183 34790ft 397kts
08-Jan-18 19:13 44.685257 -123.325868 183 34789ft 396kts
08-Jan-18 19:14 44.575328 -123.322125 183 34788ft 396kts
08-Jan-18 19:15 44.465310 -123.318379 183 34786ft 396kts
08-Jan-18 19:16 44.359682 -123.314780 183 34783ft 396kts
08-Jan-18 19:17 44.249902 -123.311039 183 34775ft 396kts
08-Jan-18 19:18 44.139952 -123.307290 183 34763ft 396kts
08-Jan-18 19:19 44.030032 -123.303545 183 34762ft 396kts
08-Jan-18 19:20 43.920157 -123.299797 183 34761ft 396kts
08-Jan-18 19:21 43.815631 -123.296234 183 34773ft 396kts
08-Jan-18 19:22 43.705498 -123.292476 183 34767ft 396kts
08-Jan-18 19:23 43.595814 -123.288736 183 34762ft 396kts
08-Jan-18 19:24 43.485909 -123.284988 183 34760ft 396kts
08-Jan-18 19:25 43.376009 -123.281238 183 34758ft 396kts
08-Jan-18 19:26 43.266148 -123.277488 183 34756ft 396kts
08-Jan-18 19:27 43.174461 -123.274359 183 34755ft 396kts
08-Jan-18 19:28 43.046401 -123.269987 183 34753ft 397kts
08-Jan-18 19:29 42.954869 -123.266877 182 34753ft 395kts
08-Jan-18 19:30 42.831459 -123.262667 182 34763ft 394kts
08-Jan-18 19:31 42.740393 -123.259533 182 34766ft 394kts
08-Jan-18 19:32 42.613356 -123.255200 182 34762ft 394kts
08-Jan-18 19:33 42.521773 -123.252070 182 34751ft 398kts
08-Jan-18 19:34 42.393721 -123.247695 182 34750ft 397kts
08-Jan-18 19:35 42.301824 -123.244556 182 34748ft 398kts
08-Jan-18 19:36 42.191522 -123.240789 182 34747ft 397kts
08-Jan-18 19:37 42.081173 -123.237018 182 34746ft 397kts
08-Jan-18 19:38 41.971120 -123.233256 182 34744ft 397kts
08-Jan-18 19:39 41.866634 -123.229686 182 34762ft 397kts
08-Jan-18 19:40 41.758201 -123.225980 182 34774ft 397kts
08-Jan-18 19:41 41.647750 -123.222205 182 34762ft 397kts
08-Jan-18 19:42 41.537595 -123.218436 182 34752ft 397kts
08-Jan-18 19:43 41.427589 -123.214675 182 34747ft 397kts
08-Jan-18 19:44 41.316482 -123.210888 182 34750ft 405kts
08-Jan-18 19:45 41.206031 -123.207101 182 34747ft 404kts
08-Jan-18 19:46 41.094570 -123.203290 182 34749ft 403kts
08-Jan-18 19:47 40.982866 -123.199496 181 34758ft 400kts
08-Jan-18 19:48 40.876199 -123.195839 180 34775ft 400kts
08-Jan-18 19:49 40.767248 -123.192105 180 34779ft 400kts
08-Jan-18 19:50 40.656529 -123.188303 180 34779ft 400kts
08-Jan-18 19:51 40.545580 -123.184512 180 34775ft 400kts
08-Jan-18 19:52 40.434888 -123.180719 181 34777ft 400kts
08-Jan-18 19:53 40.323660 -123.176912 180 34780ft 400kts
08-Jan-18 19:54 40.212985 -123.173129 180 34782ft 400kts
08-Jan-18 19:55 40.101798 -123.169329 180 34776ft 400kts
08-Jan-18 19:56 39.990925 -123.165546 180 34758ft 400kts
08-Jan-18 19:57 39.882055 -123.161810 180 34767ft 400kts
08-Jan-18 19:58 39.781209 -123.158360 180 34766ft 400kts
08-Jan-18 19:59 39.671302 -123.154604 180 34765ft 400kts
08-Jan-18 20:00 39.560437 -123.150796 180 34763ft 400kts
08-Jan-18 20:01 39.449961 -123.147013 180 34712ft 401kts
08-Jan-18 20:02 39.338205 -123.143192 180 33283ft 402kts
08-Jan-18 20:03 39.227912 -123.139412 180 31756ft 384kts
08-Jan-18 20:04 39.122278 -123.135811 180 29877ft 406kts
08-Jan-18 20:05 39.017994 -123.075910 151 27840ft 425kts
08-Jan-18 20:06 38.921766 -122.997055 152 26908ft 372kts
08-Jan-18 20:07 38.836656 -122.946719 170 25299ft 410kts
08-Jan-18 20:08 38.725902 -122.914730 170 23736ft 377kts
08-Jan-18 20:09 38.633439 -122.887545 170 23759ft 341kts
08-Jan-18 20:10 38.540847 -122.860241 170 23753ft 343kts
08-Jan-18 20:11 38.448925 -122.833249 170 22789ft 341kts
08-Jan-18 20:12 38.360884 -122.807417 170 21137ft 322kts
08-Jan-18 20:13 38.272681 -122.781570 169 19812ft 323kts
08-Jan-18 20:14 38.202267 -122.760962 169 18755ft 318kts
08-Jan-18 20:15 38.131349 -122.740389 169 17690ft 313kts
08-Jan-18 20:16 38.047580 -122.716111 169 16429ft 307kts
08-Jan-18 20:17 37.965146 -122.692223 169 15185ft 302kts
08-Jan-18 20:18 37.888277 -122.662191 146 13997ft 306kts
08-Jan-18 20:19 37.828632 -122.598342 144 12824ft 302kts
08-Jan-18 20:20 37.780379 -122.547026 144 11895ft 297kts
08-Jan-18 20:21 37.717381 -122.480287 143 11008ft 297kts
08-Jan-18 20:22 37.658581 -122.417756 142 11008ft 298kts
08-Jan-18 20:23 37.606955 -122.364071 151 10997ft 291kts
08-Jan-18 20:24 37.539321 -122.365939 184 9575ft 231kts
08-Jan-18 20:25 37.479302 -122.367929 166 7762ft 212kts
08-Jan-18 20:26 37.429745 -122.338394 136 7049ft 212kts
08-Jan-18 20:27 37.416028 -122.271434 103 6209ft 229kts
08-Jan-18 20:28 37.409336 -122.195015 79 5109ft 222kts
08-Jan-18 20:29 37.450684 -122.139868 43 3298ft 216kts
08-Jan-18 20:30 37.496076 -122.116900 333 3129ft 196kts
08-Jan-18 20:31 37.534427 -122.165409 312 3131ft 197kts
08-Jan-18 20:32 37.557145 -122.227501 298 2304ft 191kts
08-Jan-18 20:33 37.578910 -122.280288 299 1359ft 143kts
08-Jan-18 20:34 37.596296 -122.321660 299 873ft 132kts
08-Jan-18 20:42 37.618454 -122.382080 151 19ft 0kts
08-Jan-18 20:43 37.618454 -122.382080 151 19ft 0kts
08-Jan-18 20:44 37.618454 -122.382080 151 19ft 0kts
08-Jan-18 20:45 37.618454 -122.382080 151 19ft 0kts

Navigation Log

Ident Type
Flight plan parsing failed, navigation log unavailable